sensor_id;sensor_type;location;lat;lon;timestamp;temperature;humidity
4097;DHT22;2062;50.694;7.246;2023-12-22T00:00:16;6.20;76.20
4097;DHT22;2062;50.694;7.246;2023-12-22T00:02:43;6.20;76.30
4097;DHT22;2062;50.694;7.246;2023-12-22T00:05:10;6.20;76.20
4097;DHT22;2062;50.694;7.246;2023-12-22T00:07:38;6.30;76.50
4097;DHT22;2062;50.694;7.246;2023-12-22T00:10:05;6.30;76.50
4097;DHT22;2062;50.694;7.246;2023-12-22T00:12:32;6.20;76.50
4097;DHT22;2062;50.694;7.246;2023-12-22T00:14:59;6.30;76.60
4097;DHT22;2062;50.694;7.246;2023-12-22T00:17:25;6.30;77.60
4097;DHT22;2062;50.694;7.246;2023-12-22T00:19:52;6.30;76.90
4097;DHT22;2062;50.694;7.246;2023-12-22T00:22:20;6.30;76.90
4097;DHT22;2062;50.694;7.246;2023-12-22T00:24:48;6.30;76.70
4097;DHT22;2062;50.694;7.246;2023-12-22T00:27:15;6.30;76.30
4097;DHT22;2062;50.694;7.246;2023-12-22T00:29:42;6.30;75.50
4097;DHT22;2062;50.694;7.246;2023-12-22T00:32:09;6.20;74.60
4097;DHT22;2062;50.694;7.246;2023-12-22T00:34:36;6.20;73.80
4097;DHT22;2062;50.694;7.246;2023-12-22T00:37:03;6.10;73.30
4097;DHT22;2062;50.694;7.246;2023-12-22T00:39:31;6.10;73.60
4097;DHT22;2062;50.694;7.246;2023-12-22T00:41:59;6.00;73.60
4097;DHT22;2062;50.694;7.246;2023-12-22T00:44:26;5.90;73.70
4097;DHT22;2062;50.694;7.246;2023-12-22T00:46:55;5.90;73.60
4097;DHT22;2062;50.694;7.246;2023-12-22T00:49:22;5.90;73.90
4097;DHT22;2062;50.694;7.246;2023-12-22T00:51:48;5.80;73.90
4097;DHT22;2062;50.694;7.246;2023-12-22T00:54:15;5.80;74.10
4097;DHT22;2062;50.694;7.246;2023-12-22T00:56:42;5.70;74.20
4097;DHT22;2062;50.694;7.246;2023-12-22T00:59:10;5.80;74.30
4097;DHT22;2062;50.694;7.246;2023-12-22T01:01:37;5.70;74.40
4097;DHT22;2062;50.694;7.246;2023-12-22T01:04:04;5.70;74.50
4097;DHT22;2062;50.694;7.246;2023-12-22T01:06:30;5.70;74.70
4097;DHT22;2062;50.694;7.246;2023-12-22T01:08:57;5.70;74.70
4097;DHT22;2062;50.694;7.246;2023-12-22T01:11:24;5.60;74.60
4097;DHT22;2062;50.694;7.246;2023-12-22T01:13:51;5.60;74.80
4097;DHT22;2062;50.694;7.246;2023-12-22T01:16:19;5.60;74.90
4097;DHT22;2062;50.694;7.246;2023-12-22T01:18:47;5.60;75.00
4097;DHT22;2062;50.694;7.246;2023-12-22T01:21:14;5.60;75.10
4097;DHT22;2062;50.694;7.246;2023-12-22T01:23:41;5.60;75.20
4097;DHT22;2062;50.694;7.246;2023-12-22T01:26:08;5.60;75.30
4097;DHT22;2062;50.694;7.246;2023-12-22T01:28:33;5.60;75.40
4097;DHT22;2062;50.694;7.246;2023-12-22T01:31:00;5.60;75.40
4097;DHT22;2062;50.694;7.246;2023-12-22T01:33:28;5.50;75.50
4097;DHT22;2062;50.694;7.246;2023-12-22T01:35:56;5.60;75.50
4097;DHT22;2062;50.694;7.246;2023-12-22T01:38:22;5.60;75.50
4097;DHT22;2062;50.694;7.246;2023-12-22T01:40:49;5.60;75.60
4097;DHT22;2062;50.694;7.246;2023-12-22T01:43:16;5.60;75.70
4097;DHT22;2062;50.694;7.246;2023-12-22T01:45:47;5.60;75.70
4097;DHT22;2062;50.694;7.246;2023-12-22T01:48:14;5.60;75.80
4097;DHT22;2062;50.694;7.246;2023-12-22T01:50:42;5.60;75.90
4097;DHT22;2062;50.694;7.246;2023-12-22T01:53:10;5.60;75.90
4097;DHT22;2062;50.694;7.246;2023-12-22T01:55:37;5.60;75.90
4097;DHT22;2062;50.694;7.246;2023-12-22T01:58:04;5.60;76.00
4097;DHT22;2062;50.694;7.246;2023-12-22T02:00:31;5.60;76.00
4097;DHT22;2062;50.694;7.246;2023-12-22T02:02:58;5.60;76.10
4097;DHT22;2062;50.694;7.246;2023-12-22T02:05:25;5.60;76.10
4097;DHT22;2062;50.694;7.246;2023-12-22T02:07:53;5.60;76.10
4097;DHT22;2062;50.694;7.246;2023-12-22T02:10:20;5.60;76.10
4097;DHT22;2062;50.694;7.246;2023-12-22T02:12:46;5.60;76.10
4097;DHT22;2062;50.694;7.246;2023-12-22T02:15:14;5.60;76.10
4097;DHT22;2062;50.694;7.246;2023-12-22T02:17:48;5.70;76.30
4097;DHT22;2062;50.694;7.246;2023-12-22T02:20:16;5.60;76.20
4097;DHT22;2062;50.694;7.246;2023-12-22T02:22:45;5.80;76.30
4097;DHT22;2062;50.694;7.246;2023-12-22T02:25:12;5.70;76.40
4097;DHT22;2062;50.694;7.246;2023-12-22T02:27:42;5.70;76.40
4097;DHT22;2062;50.694;7.246;2023-12-22T02:30:14;5.70;76.30
4097;DHT22;2062;50.694;7.246;2023-12-22T02:32:43;5.70;76.40
4097;DHT22;2062;50.694;7.246;2023-12-22T02:35:13;5.70;76.40
4097;DHT22;2062;50.694;7.246;2023-12-22T02:37:41;5.70;76.40
4097;DHT22;2062;50.694;7.246;2023-12-22T02:40:09;5.70;76.40
4097;DHT22;2062;50.694;7.246;2023-12-22T02:42:37;5.70;76.50
4097;DHT22;2062;50.694;7.246;2023-12-22T02:45:05;5.70;76.50
4097;DHT22;2062;50.694;7.246;2023-12-22T02:47:32;5.70;76.60
4097;DHT22;2062;50.694;7.246;2023-12-22T02:49:59;5.70;76.60
4097;DHT22;2062;50.694;7.246;2023-12-22T02:52:26;5.70;76.60
4097;DHT22;2062;50.694;7.246;2023-12-22T02:54:53;5.70;76.60
4097;DHT22;2062;50.694;7.246;2023-12-22T02:57:21;5.70;76.60
4097;DHT22;2062;50.694;7.246;2023-12-22T02:59:48;5.70;76.70
4097;DHT22;2062;50.694;7.246;2023-12-22T03:02:15;5.70;76.70
4097;DHT22;2062;50.694;7.246;2023-12-22T03:04:42;5.70;76.70
4097;DHT22;2062;50.694;7.246;2023-12-22T03:07:08;5.70;76.60
4097;DHT22;2062;50.694;7.246;2023-12-22T03:09:35;5.70;76.60
4097;DHT22;2062;50.694;7.246;2023-12-22T03:12:02;5.70;76.70
4097;DHT22;2062;50.694;7.246;2023-12-22T03:14:31;5.70;76.70
4097;DHT22;2062;50.694;7.246;2023-12-22T03:16:58;5.70;76.80
4097;DHT22;2062;50.694;7.246;2023-12-22T03:19:25;5.70;76.90
4097;DHT22;2062;50.694;7.246;2023-12-22T03:21:52;5.70;76.90
4097;DHT22;2062;50.694;7.246;2023-12-22T03:24:19;5.70;76.90
4097;DHT22;2062;50.694;7.246;2023-12-22T03:26:47;5.80;76.90
4097;DHT22;2062;50.694;7.246;2023-12-22T03:29:14;5.70;77.10
4097;DHT22;2062;50.694;7.246;2023-12-22T03:31:42;5.80;77.10
4097;DHT22;2062;50.694;7.246;2023-12-22T03:34:09;5.80;77.10
4097;DHT22;2062;50.694;7.246;2023-12-22T03:36:36;5.80;77.10
4097;DHT22;2062;50.694;7.246;2023-12-22T03:39:04;5.80;77.20
4097;DHT22;2062;50.694;7.246;2023-12-22T03:41:31;5.90;77.40
4097;DHT22;2062;50.694;7.246;2023-12-22T03:43:57;5.90;77.30
4097;DHT22;2062;50.694;7.246;2023-12-22T03:46:24;5.90;77.40
4097;DHT22;2062;50.694;7.246;2023-12-22T03:48:53;5.90;77.50
4097;DHT22;2062;50.694;7.246;2023-12-22T03:51:19;5.90;77.50
4097;DHT22;2062;50.694;7.246;2023-12-22T03:53:46;6.00;77.50
4097;DHT22;2062;50.694;7.246;2023-12-22T03:56:13;6.00;77.50
4097;DHT22;2062;50.694;7.246;2023-12-22T03:58:40;6.00;77.50
4097;DHT22;2062;50.694;7.246;2023-12-22T04:01:05;6.00;77.50
4097;DHT22;2062;50.694;7.246;2023-12-22T04:03:33;6.00;77.50
4097;DHT22;2062;50.694;7.246;2023-12-22T04:06:03;6.10;77.50
4097;DHT22;2062;50.694;7.246;2023-12-22T04:08:30;6.10;77.50
4097;DHT22;2062;50.694;7.246;2023-12-22T04:10:56;6.10;77.60
4097;DHT22;2062;50.694;7.246;2023-12-22T04:13:23;6.10;77.60
4097;DHT22;2062;50.694;7.246;2023-12-22T04:15:50;6.20;77.50
4097;DHT22;2062;50.694;7.246;2023-12-22T04:18:17;6.20;77.40
4097;DHT22;2062;50.694;7.246;2023-12-22T04:20:44;6.20;77.50
4097;DHT22;2062;50.694;7.246;2023-12-22T04:23:12;6.20;77.40
4097;DHT22;2062;50.694;7.246;2023-12-22T04:25:38;6.20;77.30
4097;DHT22;2062;50.694;7.246;2023-12-22T04:28:05;6.20;77.30
4097;DHT22;2062;50.694;7.246;2023-12-22T04:30:32;6.20;77.30
4097;DHT22;2062;50.694;7.246;2023-12-22T04:32:59;6.30;77.30
4097;DHT22;2062;50.694;7.246;2023-12-22T04:35:26;6.30;77.30
4097;DHT22;2062;50.694;7.246;2023-12-22T04:37:53;6.30;77.20
4097;DHT22;2062;50.694;7.246;2023-12-22T04:40:21;6.30;77.10
4097;DHT22;2062;50.694;7.246;2023-12-22T04:42:48;6.30;77.00
4097;DHT22;2062;50.694;7.246;2023-12-22T04:45:14;6.30;76.90
4097;DHT22;2062;50.694;7.246;2023-12-22T04:47:42;6.30;76.90
4097;DHT22;2062;50.694;7.246;2023-12-22T04:50:09;6.30;76.70
4097;DHT22;2062;50.694;7.246;2023-12-22T04:52:36;6.30;76.70
4097;DHT22;2062;50.694;7.246;2023-12-22T04:55:03;6.30;76.70
4097;DHT22;2062;50.694;7.246;2023-12-22T04:57:31;6.30;76.60
4097;DHT22;2062;50.694;7.246;2023-12-22T04:59:58;6.30;76.50
4097;DHT22;2062;50.694;7.246;2023-12-22T05:02:25;6.30;76.50
4097;DHT22;2062;50.694;7.246;2023-12-22T05:04:52;6.30;76.30
4097;DHT22;2062;50.694;7.246;2023-12-22T05:07:19;6.30;76.40
4097;DHT22;2062;50.694;7.246;2023-12-22T05:09:45;6.30;76.40
4097;DHT22;2062;50.694;7.246;2023-12-22T05:12:12;6.20;76.30
4097;DHT22;2062;50.694;7.246;2023-12-22T05:14:41;6.20;76.30
4097;DHT22;2062;50.694;7.246;2023-12-22T05:17:08;6.20;76.40
4097;DHT22;2062;50.694;7.246;2023-12-22T05:19:35;6.20;76.40
4097;DHT22;2062;50.694;7.246;2023-12-22T05:22:03;6.20;76.50
4097;DHT22;2062;50.694;7.246;2023-12-22T05:24:30;6.20;76.50
4097;DHT22;2062;50.694;7.246;2023-12-22T05:26:57;6.20;76.50
4097;DHT22;2062;50.694;7.246;2023-12-22T05:29:24;6.20;76.60
4097;DHT22;2062;50.694;7.246;2023-12-22T05:31:52;6.20;76.70
4097;DHT22;2062;50.694;7.246;2023-12-22T05:34:18;6.30;76.90
4097;DHT22;2062;50.694;7.246;2023-12-22T05:36:45;6.30;76.90
4097;DHT22;2062;50.694;7.246;2023-12-22T05:39:12;6.30;77.00
4097;DHT22;2062;50.694;7.246;2023-12-22T05:41:39;6.30;77.00
4097;DHT22;2062;50.694;7.246;2023-12-22T05:44:05;6.30;77.10
4097;DHT22;2062;50.694;7.246;2023-12-22T05:46:35;6.30;77.20
4097;DHT22;2062;50.694;7.246;2023-12-22T05:49:04;6.40;77.20
4097;DHT22;2062;50.694;7.246;2023-12-22T05:51:36;6.40;77.20
4097;DHT22;2062;50.694;7.246;2023-12-22T05:54:04;6.40;77.10
4097;DHT22;2062;50.694;7.246;2023-12-22T05:56:31;6.40;77.10
4097;DHT22;2062;50.694;7.246;2023-12-22T05:58:58;6.40;77.10
4097;DHT22;2062;50.694;7.246;2023-12-22T06:01:25;6.50;77.10
4097;DHT22;2062;50.694;7.246;2023-12-22T06:03:52;6.50;77.10
4097;DHT22;2062;50.694;7.246;2023-12-22T06:06:20;6.50;77.10
4097;DHT22;2062;50.694;7.246;2023-12-22T06:08:47;6.50;77.10
4097;DHT22;2062;50.694;7.246;2023-12-22T06:11:14;6.50;77.00
4097;DHT22;2062;50.694;7.246;2023-12-22T06:13:41;6.60;76.90
4097;DHT22;2062;50.694;7.246;2023-12-22T06:16:11;6.60;76.70
4097;DHT22;2062;50.694;7.246;2023-12-22T06:18:38;6.60;76.60
4097;DHT22;2062;50.694;7.246;2023-12-22T06:21:05;6.60;76.50
4097;DHT22;2062;50.694;7.246;2023-12-22T06:23:33;6.60;76.50
4097;DHT22;2062;50.694;7.246;2023-12-22T06:26:00;6.70;76.60
4097;DHT22;2062;50.694;7.246;2023-12-22T06:28:27;6.70;76.50
4097;DHT22;2062;50.694;7.246;2023-12-22T06:30:54;6.70;76.50
4097;DHT22;2062;50.694;7.246;2023-12-22T06:33:21;6.70;76.20
4097;DHT22;2062;50.694;7.246;2023-12-22T06:35:48;6.70;76.20
4097;DHT22;2062;50.694;7.246;2023-12-22T06:38:19;6.70;76.20
4097;DHT22;2062;50.694;7.246;2023-12-22T06:40:47;6.70;76.20
4097;DHT22;2062;50.694;7.246;2023-12-22T06:43:13;6.80;76.20
4097;DHT22;2062;50.694;7.246;2023-12-22T06:45:40;6.80;76.20
4097;DHT22;2062;50.694;7.246;2023-12-22T06:48:07;6.80;76.20
4097;DHT22;2062;50.694;7.246;2023-12-22T06:50:35;6.80;76.20
4097;DHT22;2062;50.694;7.246;2023-12-22T06:53:04;6.80;76.30
4097;DHT22;2062;50.694;7.246;2023-12-22T06:55:33;6.80;76.30
4097;DHT22;2062;50.694;7.246;2023-12-22T06:58:01;6.80;76.50
4097;DHT22;2062;50.694;7.246;2023-12-22T07:00:28;6.90;76.60
4097;DHT22;2062;50.694;7.246;2023-12-22T07:02:55;6.90;76.70
4097;DHT22;2062;50.694;7.246;2023-12-22T07:05:33;6.90;76.60
4097;DHT22;2062;50.694;7.246;2023-12-22T07:08:04;6.90;76.70
4097;DHT22;2062;50.694;7.246;2023-12-22T07:10:32;6.90;76.70
4097;DHT22;2062;50.694;7.246;2023-12-22T07:12:58;6.90;76.70
4097;DHT22;2062;50.694;7.246;2023-12-22T07:15:26;6.90;76.70
4097;DHT22;2062;50.694;7.246;2023-12-22T07:17:54;7.00;76.70
4097;DHT22;2062;50.694;7.246;2023-12-22T07:20:21;7.00;76.60
4097;DHT22;2062;50.694;7.246;2023-12-22T07:22:48;7.00;76.60
4097;DHT22;2062;50.694;7.246;2023-12-22T07:25:16;7.00;76.70
4097;DHT22;2062;50.694;7.246;2023-12-22T07:27:44;7.00;76.70
4097;DHT22;2062;50.694;7.246;2023-12-22T07:30:12;7.00;76.70
4097;DHT22;2062;50.694;7.246;2023-12-22T07:32:43;7.00;76.60
4097;DHT22;2062;50.694;7.246;2023-12-22T07:35:10;7.00;76.60
4097;DHT22;2062;50.694;7.246;2023-12-22T07:37:37;7.00;76.60
4097;DHT22;2062;50.694;7.246;2023-12-22T07:40:05;7.00;76.70
4097;DHT22;2062;50.694;7.246;2023-12-22T07:42:32;7.00;76.70
4097;DHT22;2062;50.694;7.246;2023-12-22T07:44:59;7.00;76.70
4097;DHT22;2062;50.694;7.246;2023-12-22T07:47:26;7.00;76.70
4097;DHT22;2062;50.694;7.246;2023-12-22T07:49:54;7.10;76.90
4097;DHT22;2062;50.694;7.246;2023-12-22T07:52:21;6.90;76.70
4097;DHT22;2062;50.694;7.246;2023-12-22T07:54:47;6.90;76.80
4097;DHT22;2062;50.694;7.246;2023-12-22T07:57:14;7.00;76.80
4097;DHT22;2062;50.694;7.246;2023-12-22T07:59:41;7.00;77.70
4097;DHT22;2062;50.694;7.246;2023-12-22T08:02:08;7.00;76.80
4097;DHT22;2062;50.694;7.246;2023-12-22T08:04:34;7.00;76.90
4097;DHT22;2062;50.694;7.246;2023-12-22T08:07:03;7.00;76.90
4097;DHT22;2062;50.694;7.246;2023-12-22T08:09:30;7.00;77.00
4097;DHT22;2062;50.694;7.246;2023-12-22T08:11:57;7.00;77.10
4097;DHT22;2062;50.694;7.246;2023-12-22T08:14:23;6.90;77.10
4097;DHT22;2062;50.694;7.246;2023-12-22T08:16:50;6.90;77.20
4097;DHT22;2062;50.694;7.246;2023-12-22T08:19:17;6.90;77.20
4097;DHT22;2062;50.694;7.246;2023-12-22T08:21:46;7.00;77.30
4097;DHT22;2062;50.694;7.246;2023-12-22T08:24:14;7.00;77.30
4097;DHT22;2062;50.694;7.246;2023-12-22T08:26:41;7.00;77.30
4097;DHT22;2062;50.694;7.246;2023-12-22T08:29:08;7.00;77.40
4097;DHT22;2062;50.694;7.246;2023-12-22T08:31:34;7.00;77.40
4097;DHT22;2062;50.694;7.246;2023-12-22T08:34:01;7.00;77.60
4097;DHT22;2062;50.694;7.246;2023-12-22T08:36:28;7.00;77.50
4097;DHT22;2062;50.694;7.246;2023-12-22T08:38:55;7.00;77.70
4097;DHT22;2062;50.694;7.246;2023-12-22T08:41:23;7.00;77.70
4097;DHT22;2062;50.694;7.246;2023-12-22T08:43:50;7.00;77.60
4097;DHT22;2062;50.694;7.246;2023-12-22T08:46:17;7.10;77.80
4097;DHT22;2062;50.694;7.246;2023-12-22T08:48:43;7.10;77.80
4097;DHT22;2062;50.694;7.246;2023-12-22T08:51:10;7.10;77.90
4097;DHT22;2062;50.694;7.246;2023-12-22T08:53:37;7.10;77.80
4097;DHT22;2062;50.694;7.246;2023-12-22T08:56:05;7.10;77.80
4097;DHT22;2062;50.694;7.246;2023-12-22T08:58:35;7.20;77.70
4097;DHT22;2062;50.694;7.246;2023-12-22T09:01:01;7.10;77.80
4097;DHT22;2062;50.694;7.246;2023-12-22T09:03:28;7.20;77.70
4097;DHT22;2062;50.694;7.246;2023-12-22T09:05:56;7.20;77.70
4097;DHT22;2062;50.694;7.246;2023-12-22T09:08:23;7.20;77.70
4097;DHT22;2062;50.694;7.246;2023-12-22T09:10:50;7.30;77.80
4097;DHT22;2062;50.694;7.246;2023-12-22T09:13:18;7.30;77.80
4097;DHT22;2062;50.694;7.246;2023-12-22T09:15:47;7.30;77.80
4097;DHT22;2062;50.694;7.246;2023-12-22T09:18:14;7.30;77.80
4097;DHT22;2062;50.694;7.246;2023-12-22T09:20:41;7.30;77.80
4097;DHT22;2062;50.694;7.246;2023-12-22T09:23:08;7.40;77.80
4097;DHT22;2062;50.694;7.246;2023-12-22T09:25:35;7.40;77.80
4097;DHT22;2062;50.694;7.246;2023-12-22T09:28:03;7.40;77.80
4097;DHT22;2062;50.694;7.246;2023-12-22T09:30:29;7.40;77.80
4097;DHT22;2062;50.694;7.246;2023-12-22T09:32:58;7.50;77.80
4097;DHT22;2062;50.694;7.246;2023-12-22T09:35:25;7.50;77.80
4097;DHT22;2062;50.694;7.246;2023-12-22T09:37:52;7.50;77.80
4097;DHT22;2062;50.694;7.246;2023-12-22T09:40:19;7.50;77.80
4097;DHT22;2062;50.694;7.246;2023-12-22T09:42:47;7.50;77.80
4097;DHT22;2062;50.694;7.246;2023-12-22T09:45:16;7.60;77.80
4097;DHT22;2062;50.694;7.246;2023-12-22T09:47:44;7.60;77.80
4097;DHT22;2062;50.694;7.246;2023-12-22T09:50:14;7.60;77.80
4097;DHT22;2062;50.694;7.246;2023-12-22T09:52:42;7.60;77.70
4097;DHT22;2062;50.694;7.246;2023-12-22T09:55:09;7.60;77.70
4097;DHT22;2062;50.694;7.246;2023-12-22T09:57:37;7.70;77.90
4097;DHT22;2062;50.694;7.246;2023-12-22T10:00:07;7.70;77.80
4097;DHT22;2062;50.694;7.246;2023-12-22T10:02:36;7.70;77.80
4097;DHT22;2062;50.694;7.246;2023-12-22T10:05:03;7.70;77.80
4097;DHT22;2062;50.694;7.246;2023-12-22T10:07:31;7.80;77.70
4097;DHT22;2062;50.694;7.246;2023-12-22T10:09:59;7.80;77.70
4097;DHT22;2062;50.694;7.246;2023-12-22T10:12:27;7.80;77.80
4097;DHT22;2062;50.694;7.246;2023-12-22T10:14:56;7.80;77.70
4097;DHT22;2062;50.694;7.246;2023-12-22T10:17:24;7.90;77.80
4097;DHT22;2062;50.694;7.246;2023-12-22T10:19:51;7.90;77.80
4097;DHT22;2062;50.694;7.246;2023-12-22T10:22:18;7.90;77.90
4097;DHT22;2062;50.694;7.246;2023-12-22T10:24:48;7.90;77.80
4097;DHT22;2062;50.694;7.246;2023-12-22T10:27:17;7.90;77.80
4097;DHT22;2062;50.694;7.246;2023-12-22T10:29:48;8.00;77.70
4097;DHT22;2062;50.694;7.246;2023-12-22T10:32:15;8.00;77.80
4097;DHT22;2062;50.694;7.246;2023-12-22T10:34:42;8.00;77.70
4097;DHT22;2062;50.694;7.246;2023-12-22T10:37:10;8.00;77.70
4097;DHT22;2062;50.694;7.246;2023-12-22T10:39:37;8.00;78.60
4097;DHT22;2062;50.694;7.246;2023-12-22T10:42:05;8.10;77.90
4097;DHT22;2062;50.694;7.246;2023-12-22T10:44:32;8.10;77.90
4097;DHT22;2062;50.694;7.246;2023-12-22T10:47:00;8.10;77.90
4097;DHT22;2062;50.694;7.246;2023-12-22T10:49:28;8.10;77.90
4097;DHT22;2062;50.694;7.246;2023-12-22T10:51:55;8.10;77.90
4097;DHT22;2062;50.694;7.246;2023-12-22T10:54:21;8.20;77.90
4097;DHT22;2062;50.694;7.246;2023-12-22T10:56:49;8.20;78.00
4097;DHT22;2062;50.694;7.246;2023-12-22T10:59:18;8.20;78.10
4097;DHT22;2062;50.694;7.246;2023-12-22T11:01:45;8.20;78.20
4097;DHT22;2062;50.694;7.246;2023-12-22T11:04:17;8.20;78.20
4097;DHT22;2062;50.694;7.246;2023-12-22T11:06:49;8.20;78.30
4097;DHT22;2062;50.694;7.246;2023-12-22T11:09:19;8.20;78.40
4097;DHT22;2062;50.694;7.246;2023-12-22T11:11:48;8.20;78.40
4097;DHT22;2062;50.694;7.246;2023-12-22T11:14:17;8.20;78.50
4097;DHT22;2062;50.694;7.246;2023-12-22T11:16:47;8.20;78.60
4097;DHT22;2062;50.694;7.246;2023-12-22T11:19:14;8.20;78.50
4097;DHT22;2062;50.694;7.246;2023-12-22T11:21:41;8.20;78.60
4097;DHT22;2062;50.694;7.246;2023-12-22T11:24:11;8.30;78.90
4097;DHT22;2062;50.694;7.246;2023-12-22T11:26:41;8.30;79.00
4097;DHT22;2062;50.694;7.246;2023-12-22T11:29:09;8.30;79.00
4097;DHT22;2062;50.694;7.246;2023-12-22T11:31:39;8.30;79.10
4097;DHT22;2062;50.694;7.246;2023-12-22T11:34:07;8.30;79.20
4097;DHT22;2062;50.694;7.246;2023-12-22T11:36:34;8.30;79.30
4097;DHT22;2062;50.694;7.246;2023-12-22T11:39:02;8.30;79.40
4097;DHT22;2062;50.694;7.246;2023-12-22T11:41:33;8.30;79.50
4097;DHT22;2062;50.694;7.246;2023-12-22T11:44:01;8.30;79.60
4097;DHT22;2062;50.694;7.246;2023-12-22T11:46:30;8.30;79.70
4097;DHT22;2062;50.694;7.246;2023-12-22T11:49:00;8.40;79.70
4097;DHT22;2062;50.694;7.246;2023-12-22T11:51:31;8.30;79.80
4097;DHT22;2062;50.694;7.246;2023-12-22T11:54:00;8.40;79.70
4097;DHT22;2062;50.694;7.246;2023-12-22T11:56:28;8.40;79.80
4097;DHT22;2062;50.694;7.246;2023-12-22T11:58:55;8.40;79.80
4097;DHT22;2062;50.694;7.246;2023-12-22T12:01:25;8.40;79.80
4097;DHT22;2062;50.694;7.246;2023-12-22T12:03:55;8.40;79.80
4097;DHT22;2062;50.694;7.246;2023-12-22T12:06:33;8.50;79.90
4097;DHT22;2062;50.694;7.246;2023-12-22T12:09:04;8.50;80.00
4097;DHT22;2062;50.694;7.246;2023-12-22T12:12:11;8.50;80.00
4097;DHT22;2062;50.694;7.246;2023-12-22T12:14:41;8.50;80.00
4097;DHT22;2062;50.694;7.246;2023-12-22T12:17:09;8.50;80.00
4097;DHT22;2062;50.694;7.246;2023-12-22T12:19:38;8.50;80.80
4097;DHT22;2062;50.694;7.246;2023-12-22T12:22:08;8.60;80.00
4097;DHT22;2062;50.694;7.246;2023-12-22T12:24:36;8.60;80.20
4097;DHT22;2062;50.694;7.246;2023-12-22T12:27:04;8.60;80.10
4097;DHT22;2062;50.694;7.246;2023-12-22T12:29:32;8.60;80.10
4097;DHT22;2062;50.694;7.246;2023-12-22T12:32:03;8.60;80.10
4097;DHT22;2062;50.694;7.246;2023-12-22T12:34:31;8.70;80.10
4097;DHT22;2062;50.694;7.246;2023-12-22T12:36:58;8.70;80.10
4097;DHT22;2062;50.694;7.246;2023-12-22T12:39:30;8.70;80.10
4097;DHT22;2062;50.694;7.246;2023-12-22T12:42:00;8.70;80.10
4097;DHT22;2062;50.694;7.246;2023-12-22T12:44:27;8.80;80.00
4097;DHT22;2062;50.694;7.246;2023-12-22T12:46:54;8.90;80.00
4097;DHT22;2062;50.694;7.246;2023-12-22T12:49:20;8.80;79.90
4097;DHT22;2062;50.694;7.246;2023-12-22T12:51:52;8.90;80.00
4097;DHT22;2062;50.694;7.246;2023-12-22T12:54:19;8.90;79.90
4097;DHT22;2062;50.694;7.246;2023-12-22T12:56:48;8.90;79.90
4097;DHT22;2062;50.694;7.246;2023-12-22T12:59:16;8.90;79.80
4097;DHT22;2062;50.694;7.246;2023-12-22T13:01:44;8.90;79.70
4097;DHT22;2062;50.694;7.246;2023-12-22T13:04:11;8.90;79.80
4097;DHT22;2062;50.694;7.246;2023-12-22T13:06:43;9.00;79.70
4097;DHT22;2062;50.694;7.246;2023-12-22T13:09:10;9.00;79.70
4097;DHT22;2062;50.694;7.246;2023-12-22T13:11:38;9.00;79.60
4097;DHT22;2062;50.694;7.246;2023-12-22T13:14:09;9.00;79.70
4097;DHT22;2062;50.694;7.246;2023-12-22T13:16:36;9.10;79.80
4097;DHT22;2062;50.694;7.246;2023-12-22T13:19:03;9.10;79.70
4097;DHT22;2062;50.694;7.246;2023-12-22T13:21:31;9.10;79.80
4097;DHT22;2062;50.694;7.246;2023-12-22T13:24:11;9.10;79.60
4097;DHT22;2062;50.694;7.246;2023-12-22T13:26:39;9.10;79.60
4097;DHT22;2062;50.694;7.246;2023-12-22T13:29:06;9.10;79.70
4097;DHT22;2062;50.694;7.246;2023-12-22T13:31:37;9.10;79.60
4097;DHT22;2062;50.694;7.246;2023-12-22T13:34:08;9.10;79.60
4097;DHT22;2062;50.694;7.246;2023-12-22T13:36:36;9.10;79.60
4097;DHT22;2062;50.694;7.246;2023-12-22T13:39:03;9.20;79.60
4097;DHT22;2062;50.694;7.246;2023-12-22T13:41:32;9.20;79.70
4097;DHT22;2062;50.694;7.246;2023-12-22T13:44:03;9.10;79.70
4097;DHT22;2062;50.694;7.246;2023-12-22T13:46:30;9.10;79.80
4097;DHT22;2062;50.694;7.246;2023-12-22T13:48:58;9.10;80.00
4097;DHT22;2062;50.694;7.246;2023-12-22T13:51:25;9.10;79.90
4097;DHT22;2062;50.694;7.246;2023-12-22T13:53:52;9.10;79.90
4097;DHT22;2062;50.694;7.246;2023-12-22T13:56:19;9.10;80.00
4097;DHT22;2062;50.694;7.246;2023-12-22T13:58:46;9.10;80.00
4097;DHT22;2062;50.694;7.246;2023-12-22T14:01:14;9.10;80.00
4097;DHT22;2062;50.694;7.246;2023-12-22T14:03:41;9.20;80.00
4097;DHT22;2062;50.694;7.246;2023-12-22T14:06:09;9.10;80.00
4097;DHT22;2062;50.694;7.246;2023-12-22T14:08:38;9.10;80.00
4097;DHT22;2062;50.694;7.246;2023-12-22T14:11:05;9.10;80.00
4097;DHT22;2062;50.694;7.246;2023-12-22T14:13:32;9.20;80.00
4097;DHT22;2062;50.694;7.246;2023-12-22T14:16:01;9.10;79.90
4097;DHT22;2062;50.694;7.246;2023-12-22T14:18:27;9.10;79.90
4097;DHT22;2062;50.694;7.246;2023-12-22T14:20:54;9.10;79.90
4097;DHT22;2062;50.694;7.246;2023-12-22T14:23:22;9.10;79.90
4097;DHT22;2062;50.694;7.246;2023-12-22T14:25:49;9.20;79.80
4097;DHT22;2062;50.694;7.246;2023-12-22T14:28:16;9.20;79.80
4097;DHT22;2062;50.694;7.246;2023-12-22T14:30:43;9.10;79.70
4097;DHT22;2062;50.694;7.246;2023-12-22T14:33:09;9.20;79.60
4097;DHT22;2062;50.694;7.246;2023-12-22T14:35:36;9.20;79.60
4097;DHT22;2062;50.694;7.246;2023-12-22T14:38:03;9.20;79.60
4097;DHT22;2062;50.694;7.246;2023-12-22T14:40:31;9.10;79.60
4097;DHT22;2062;50.694;7.246;2023-12-22T14:42:58;9.20;79.60
4097;DHT22;2062;50.694;7.246;2023-12-22T14:45:27;9.20;79.50
4097;DHT22;2062;50.694;7.246;2023-12-22T14:47:54;9.10;79.50
4097;DHT22;2062;50.694;7.246;2023-12-22T14:50:21;9.20;79.50
4097;DHT22;2062;50.694;7.246;2023-12-22T14:52:48;9.20;79.60
4097;DHT22;2062;50.694;7.246;2023-12-22T14:55:15;9.20;79.60
4097;DHT22;2062;50.694;7.246;2023-12-22T14:57:44;9.20;79.60
4097;DHT22;2062;50.694;7.246;2023-12-22T15:00:12;9.20;79.60
4097;DHT22;2062;50.694;7.246;2023-12-22T15:02:39;9.20;79.60
4097;DHT22;2062;50.694;7.246;2023-12-22T15:05:06;9.20;79.80
4097;DHT22;2062;50.694;7.246;2023-12-22T15:07:33;9.20;79.40
4097;DHT22;2062;50.694;7.246;2023-12-22T15:09:59;9.20;79.40
4097;DHT22;2062;50.694;7.246;2023-12-22T15:12:29;9.30;79.40
4097;DHT22;2062;50.694;7.246;2023-12-22T15:14:59;9.20;79.30
4097;DHT22;2062;50.694;7.246;2023-12-22T15:17:27;9.20;79.30
4097;DHT22;2062;50.694;7.246;2023-12-22T15:19:53;9.20;79.20
4097;DHT22;2062;50.694;7.246;2023-12-22T15:22:20;9.20;79.20
4097;DHT22;2062;50.694;7.246;2023-12-22T15:24:48;9.20;79.20
4097;DHT22;2062;50.694;7.246;2023-12-22T15:27:14;9.20;79.20
4097;DHT22;2062;50.694;7.246;2023-12-22T15:29:44;9.20;79.10
4097;DHT22;2062;50.694;7.246;2023-12-22T15:32:12;9.20;79.20
4097;DHT22;2062;50.694;7.246;2023-12-22T15:34:41;9.20;79.20
4097;DHT22;2062;50.694;7.246;2023-12-22T15:37:08;9.20;79.30
4097;DHT22;2062;50.694;7.246;2023-12-22T15:39:34;9.20;79.40
4097;DHT22;2062;50.694;7.246;2023-12-22T15:42:02;9.20;79.50
4097;DHT22;2062;50.694;7.246;2023-12-22T15:44:28;9.20;79.50
4097;DHT22;2062;50.694;7.246;2023-12-22T15:46:55;9.20;79.70
4097;DHT22;2062;50.694;7.246;2023-12-22T15:49:23;9.20;79.70
4097;DHT22;2062;50.694;7.246;2023-12-22T15:51:50;9.20;79.80
4097;DHT22;2062;50.694;7.246;2023-12-22T15:54:21;9.20;79.70
4097;DHT22;2062;50.694;7.246;2023-12-22T15:56:48;9.20;79.90
4097;DHT22;2062;50.694;7.246;2023-12-22T15:59:14;9.20;79.90
4097;DHT22;2062;50.694;7.246;2023-12-22T16:01:44;9.20;80.00
4097;DHT22;2062;50.694;7.246;2023-12-22T16:04:12;9.20;80.00
4097;DHT22;2062;50.694;7.246;2023-12-22T16:06:40;9.20;80.00
4097;DHT22;2062;50.694;7.246;2023-12-22T16:09:07;9.20;80.80
4097;DHT22;2062;50.694;7.246;2023-12-22T16:11:33;9.20;80.00
4097;DHT22;2062;50.694;7.246;2023-12-22T16:14:00;9.20;80.00
4097;DHT22;2062;50.694;7.246;2023-12-22T16:16:27;9.20;80.00
4097;DHT22;2062;50.694;7.246;2023-12-22T16:18:54;9.20;80.00